Time;durP1;ratioP1;P1;durP2;ratioP2;P2;SDS_P1;SDS_P2;PMS_P1;PMS_P2;Temp;Humidity;BMP_temperature;BMP_pressure;BME280_temperature;BME280_humidity;BME280_pressure;Samples;Min_cycle;Max_cycle;Signal;HPM_P1;HPM_P2
2021/05/26 00:01:38;;;;;;;3.43;1.20;;;10.60;99.90;;;;;;5071116;28;20491;-57
2021/05/26 00:04:05;;;;;;;2.90;1.40;;;10.60;99.90;;;;;;5073036;28;20446;-57
2021/05/26 00:06:31;;;;;;;3.93;1.50;;;10.80;99.90;;;;;;5078101;28;20466;-57
2021/05/26 00:08:58;;;;;;;1.40;1.30;;;10.70;99.90;;;;;;5084170;28;20453;-57
2021/05/26 00:11:24;;;;;;;5.17;1.30;;;10.70;99.90;;;;;;5079906;28;20482;-57
2021/05/26 00:13:51;;;;;;;1.00;0.90;;;10.60;99.90;;;;;;5091704;28;20445;-57
2021/05/26 00:16:19;;;;;;;2.07;1.00;;;10.40;99.90;;;;;;5076114;28;20462;-57
2021/05/26 00:18:46;;;;;;;4.53;1.10;;;10.40;99.90;;;;;;5082914;28;20950;-57
2021/05/26 00:21:12;;;;;;;3.00;1.20;;;10.50;99.90;;;;;;5079934;28;20482;-57
2021/05/26 00:23:39;;;;;;;1.00;1.00;;;10.40;99.90;;;;;;5088453;28;20468;-57
2021/05/26 00:26:06;;;;;;;1.63;1.10;;;10.30;99.90;;;;;;5066463;28;20465;-57
2021/05/26 00:28:33;;;;;;;2.93;1.47;;;10.40;99.90;;;;;;5078561;28;20462;-57
2021/05/26 00:31:00;;;;;;;2.40;1.47;;;10.30;99.90;;;;;;5080238;28;21056;-57
2021/05/26 00:33:28;;;;;;;1.50;1.40;;;10.20;99.90;;;;;;5086757;28;20441;-57
2021/05/26 00:35:54;;;;;;;1.30;1.20;;;10.40;99.90;;;;;;5069892;28;20988;-57
2021/05/26 00:38:21;;;;;;;1.67;1.20;;;10.30;99.90;;;;;;5081493;28;20520;-57
2021/05/26 00:40:48;;;;;;;1.77;1.00;;;10.30;99.90;;;;;;5063895;28;20543;-56
2021/05/26 00:43:16;;;;;;;5.47;1.10;;;10.40;99.90;;;;;;5083891;28;20450;-57
2021/05/26 00:45:43;;;;;;;1.37;0.97;;;10.40;99.90;;;;;;5078549;28;20909;-57
2021/05/26 00:48:11;;;;;;;1.30;1.00;;;10.40;99.90;;;;;;5072926;28;20446;-57
2021/05/26 00:50:39;;;;;;;1.97;1.30;;;10.40;99.90;;;;;;5079703;28;20500;-56
2021/05/26 00:53:08;;;;;;;1.60;1.40;;;10.50;99.90;;;;;;5087704;28;20453;-57
2021/05/26 00:55:35;;;;;;;1.63;1.23;;;10.40;99.90;;;;;;5088996;28;20466;-57
2021/05/26 00:58:03;;;;;;;1.97;1.20;;;10.30;99.90;;;;;;5086875;28;20446;-57
2021/05/26 01:00:32;;;;;;;1.30;1.20;;;10.20;99.90;;;;;;5090947;28;20486;-57
2021/05/26 01:02:58;;;;;;;1.27;1.17;;;10.10;99.90;;;;;;5097572;28;20644;-57
2021/05/26 01:05:26;;;;;;;3.43;1.60;;;10.30;99.90;;;;;;5095635;28;20981;-57
2021/05/26 01:07:54;;;;;;;2.40;1.30;;;10.40;99.90;;;;;;5107429;28;20450;-58
2021/05/26 01:10:22;;;;;;;3.07;1.30;;;10.40;99.90;;;;;;5094493;28;20486;-56
2021/05/26 01:12:49;;;;;;;2.53;1.33;;;10.20;99.90;;;;;;5091197;28;20466;-57
2021/05/26 01:15:17;;;;;;;1.93;1.50;;;10.10;99.90;;;;;;5090549;28;20470;-57
2021/05/26 01:17:44;;;;;;;1.90;1.43;;;10.30;99.90;;;;;;5077516;28;20974;-57
2021/05/26 01:20:18;;;;;;;1.83;1.40;;;10.20;99.90;;;;;;5068399;28;20463;-57
2021/05/26 01:22:46;;;;;;;2.10;1.30;;;10.10;99.90;;;;;;5087970;28;20536;-57
2021/05/26 01:25:13;;;;;;;2.13;1.20;;;10.10;99.90;;;;;;5084611;28;20477;-57
2021/05/26 01:27:40;;;;;;;4.10;1.20;;;10.10;99.90;;;;;;5082451;28;20469;-57
2021/05/26 01:30:08;;;;;;;1.57;1.17;;;10.10;99.90;;;;;;5084255;28;21030;-57
2021/05/26 01:32:41;;;;;;;9.53;1.40;;;10.00;99.90;;;;;;5086506;28;20515;-56
2021/05/26 01:35:10;;;;;;;1.10;1.00;;;10.00;99.90;;;;;;5077608;28;20472;-56
2021/05/26 01:37:41;;;;;;;3.70;1.13;;;10.00;99.90;;;;;;5081560;28;20445;-56
2021/05/26 01:40:11;;;;;;;2.30;1.40;;;10.00;99.90;;;;;;5085312;28;20512;-57
2021/05/26 01:42:38;;;;;;;1.40;1.30;;;10.10;99.90;;;;;;5084877;28;20515;-56
2021/05/26 01:45:06;;;;;;;2.07;1.30;;;10.10;99.90;;;;;;5079855;28;20454;-57
2021/05/26 01:47:33;;;;;;;1.43;1.10;;;10.00;99.90;;;;;;5083461;28;20438;-57
2021/05/26 01:50:00;;;;;;;1.27;0.80;;;9.80;99.90;;;;;;5079127;28;20534;-57
2021/05/26 01:52:26;;;;;;;2.10;1.10;;;9.80;99.90;;;;;;5086647;28;20498;-57
2021/05/26 01:54:53;;;;;;;1.90;0.93;;;9.80;99.90;;;;;;5083085;28;20471;-57
2021/05/26 01:57:20;;;;;;;1.60;1.30;;;9.70;99.90;;;;;;5074911;28;20459;-56
2021/05/26 01:59:47;;;;;;;1.60;1.27;;;9.80;99.90;;;;;;5082603;28;20953;-56
2021/05/26 02:02:13;;;;;;;1.73;1.20;;;9.90;99.90;;;;;;5083056;28;21185;-56
2021/05/26 02:04:40;;;;;;;1.73;1.27;;;9.80;99.90;;;;;;5090641;28;20449;-56
2021/05/26 02:07:08;;;;;;;1.60;1.13;;;9.90;99.90;;;;;;5078478;28;20521;-56
2021/05/26 02:09:35;;;;;;;1.00;1.00;;;9.80;99.90;;;;;;5078364;28;20539;-56
2021/05/26 02:12:21;;;;;;;1.20;1.10;;;9.80;99.90;;;;;;5077047;28;21002;-56
2021/05/26 02:14:50;;;;;;;1.30;1.20;;;9.70;99.90;;;;;;5082357;28;20795;-56
2021/05/26 02:17:17;;;;;;;1.60;1.10;;;9.80;99.90;;;;;;5076721;28;20466;-56
2021/05/26 02:19:44;;;;;;;3.80;1.33;;;9.90;99.90;;;;;;5079171;28;20485;-56
2021/05/26 02:22:11;;;;;;;1.80;1.20;;;9.90;99.90;;;;;;5074436;28;20465;-56
2021/05/26 02:24:38;;;;;;;2.73;1.33;;;9.80;99.90;;;;;;5080285;28;20476;-56
2021/05/26 02:27:04;;;;;;;1.50;1.27;;;9.70;99.90;;;;;;5075543;28;21113;-56
2021/05/26 02:29:31;;;;;;;2.80;1.23;;;9.60;99.90;;;;;;5085131;28;20477;-56
2021/05/26 02:31:58;;;;;;;1.53;1.30;;;9.70;99.90;;;;;;5085849;28;20480;-56
2021/05/26 02:34:25;;;;;;;3.60;1.03;;;9.60;99.90;;;;;;5088584;28;20469;-56
2021/05/26 02:36:51;;;;;;;1.47;1.10;;;9.70;99.90;;;;;;5078419;28;20596;-56
2021/05/26 02:39:18;;;;;;;3.73;1.10;;;9.70;99.90;;;;;;5082425;28;20454;-56
2021/05/26 02:41:45;;;;;;;1.57;1.27;;;9.70;99.90;;;;;;5081421;28;20493;-56
2021/05/26 02:44:14;;;;;;;1.30;1.00;;;9.60;99.90;;;;;;5085923;28;20445;-56
2021/05/26 02:46:41;;;;;;;1.63;0.90;;;9.70;99.90;;;;;;5077022;28;20465;-56
2021/05/26 02:49:12;;;;;;;1.50;0.93;;;9.60;99.90;;;;;;5085466;28;20444;-56
2021/05/26 02:51:39;;;;;;;1.73;1.53;;;9.60;99.90;;;;;;5097105;22;20989;-52
2021/05/26 02:54:09;;;;;;;2.80;1.40;;;9.70;99.90;;;;;;5072228;28;20464;-52
2021/05/26 02:56:36;;;;;;;1.87;1.50;;;9.80;99.90;;;;;;5072194;28;20484;-52
2021/05/26 02:59:08;;;;;;;2.10;1.50;;;9.70;99.90;;;;;;5070007;28;20845;-52
2021/05/26 03:01:35;;;;;;;2.23;1.30;;;9.70;99.90;;;;;;5068484;28;20475;-51
2021/05/26 03:04:02;;;;;;;1.93;1.10;;;9.60;99.90;;;;;;5065115;28;20811;-52
2021/05/26 03:06:30;;;;;;;1.33;0.90;;;9.50;99.90;;;;;;5071145;28;20472;-52
2021/05/26 03:08:56;;;;;;;1.30;1.20;;;9.60;99.90;;;;;;5070529;28;20462;-51
2021/05/26 03:11:23;;;;;;;4.83;1.80;;;9.50;99.90;;;;;;5065761;28;20483;-51
2021/05/26 03:13:50;;;;;;;1.90;1.30;;;9.50;99.90;;;;;;5070782;28;20505;-52
2021/05/26 03:16:16;;;;;;;2.57;1.50;;;9.50;99.90;;;;;;5070084;28;20474;-52
2021/05/26 03:18:45;;;;;;;1.40;1.10;;;9.50;99.90;;;;;;5070825;28;20462;-52
2021/05/26 03:21:12;;;;;;;2.83;1.40;;;9.50;99.90;;;;;;5061358;28;20468;-52
2021/05/26 03:23:40;;;;;;;2.40;1.30;;;9.50;99.90;;;;;;5055544;28;20460;-51
2021/05/26 03:26:07;;;;;;;1.93;1.30;;;9.60;99.90;;;;;;5067379;28;20470;-51
2021/05/26 03:28:34;;;;;;;1.10;1.00;;;9.50;99.90;;;;;;5071821;28;20469;-52
2021/05/26 03:31:00;;;;;;;2.13;1.10;;;9.40;99.90;;;;;;5063129;28;20512;-51
2021/05/26 03:33:27;;;;;;;1.23;0.90;;;9.30;99.90;;;;;;5064627;28;20457;-51
2021/05/26 03:35:53;;;;;;;2.60;1.20;;;9.40;99.90;;;;;;5071534;28;20472;-51
2021/05/26 03:38:20;;;;;;;1.10;0.83;;;9.30;99.90;;;;;;5071034;28;20470;-51
2021/05/26 03:40:47;;;;;;;3.00;1.20;;;9.40;99.90;;;;;;5056502;28;20478;-51
2021/05/26 03:43:13;;;;;;;1.00;0.90;;;9.40;99.90;;;;;;5067660;28;20893;-51
2021/05/26 03:45:40;;;;;;;3.03;1.17;;;9.40;99.90;;;;;;5069865;28;20469;-52
2021/05/26 03:48:07;;;;;;;5.47;1.10;;;9.30;99.90;;;;;;5067952;28;20488;-51
2021/05/26 03:50:34;;;;;;;2.53;0.90;;;9.30;99.90;;;;;;5066112;28;20484;-51
2021/05/26 03:53:00;;;;;;;1.73;1.10;;;9.30;99.90;;;;;;5062815;28;21459;-52
2021/05/26 03:55:28;;;;;;;3.00;1.10;;;9.30;99.90;;;;;;5062928;28;20456;-51
2021/05/26 03:57:56;;;;;;;2.10;1.27;;;9.40;99.90;;;;;;5063292;28;20468;-51
2021/05/26 04:00:23;;;;;;;1.30;1.20;;;9.60;99.90;;;;;;5062374;28;20967;-51
2021/05/26 04:02:50;;;;;;;1.23;1.13;;;9.40;99.90;;;;;;5062623;28;20458;-52
2021/05/26 04:05:17;;;;;;;1.57;1.20;;;9.30;99.90;;;;;;5064386;28;20466;-52
2021/05/26 04:07:44;;;;;;;1.73;1.27;;;9.30;99.90;;;;;;5066884;28;20461;-52
2021/05/26 04:10:12;;;;;;;3.07;1.33;;;9.30;99.90;;;;;;5059025;28;20526;-52
2021/05/26 04:12:38;;;;;;;1.40;1.30;;;9.30;99.90;;;;;;5062936;28;20859;-51
2021/05/26 04:15:07;;;;;;;1.50;1.40;;;9.50;99.90;;;;;;5062477;28;20469;-52
2021/05/26 04:17:34;;;;;;;4.80;1.43;;;9.60;99.90;;;;;;5062905;28;20465;-52
2021/05/26 04:20:04;;;;;;;2.13;1.13;;;9.60;99.90;;;;;;5062106;28;20486;-52
2021/05/26 04:22:31;;;;;;;2.37;1.10;;;9.60;99.90;;;;;;5063134;28;20482;-52
2021/05/26 04:24:58;;;;;;;3.20;1.40;;;9.70;99.90;;;;;;5062791;28;20462;-52
2021/05/26 04:27:24;;;;;;;1.83;1.20;;;9.80;99.90;;;;;;5062872;28;20466;-52
2021/05/26 04:29:51;;;;;;;3.77;1.20;;;9.90;99.90;;;;;;5063679;28;20998;-52
2021/05/26 04:32:19;;;;;;;1.60;1.30;;;9.90;99.90;;;;;;5062305;28;21270;-52
2021/05/26 04:34:45;;;;;;;2.23;1.40;;;9.90;99.90;;;;;;5061452;28;20471;-52
2021/05/26 04:37:12;;;;;;;3.17;1.20;;;9.90;99.90;;;;;;5062127;28;20473;-52
2021/05/26 04:39:38;;;;;;;1.53;0.90;;;10.00;99.90;;;;;;5063682;28;20829;-52
2021/05/26 04:42:05;;;;;;;4.00;1.40;;;9.90;99.90;;;;;;5062011;28;20486;-52
2021/05/26 04:44:32;;;;;;;1.83;1.30;;;9.90;99.90;;;;;;5062692;28;20504;-52
2021/05/26 04:46:58;;;;;;;2.83;0.97;;;10.00;99.90;;;;;;5063239;28;20872;-52
2021/05/26 04:49:26;;;;;;;2.07;1.27;;;10.10;99.90;;;;;;5063900;28;20510;-52
2021/05/26 04:51:52;;;;;;;2.90;1.10;;;10.20;99.90;;;;;;5062947;28;20848;-52
2021/05/26 04:54:19;;;;;;;4.57;1.43;;;10.20;99.90;;;;;;5061757;28;20508;-52
2021/05/26 04:56:45;;;;;;;1.40;1.23;;;10.20;99.90;;;;;;5062471;28;20470;-52
2021/05/26 04:59:12;;;;;;;1.23;1.13;;;10.20;99.90;;;;;;5062891;28;20548;-51
2021/05/26 05:01:39;;;;;;;1.57;1.07;;;10.20;99.90;;;;;;5062134;28;20487;-51
2021/05/26 05:04:05;;;;;;;5.60;1.13;;;10.20;99.90;;;;;;5062322;28;20463;-52
2021/05/26 05:06:33;;;;;;;1.20;1.10;;;10.20;99.90;;;;;;5061173;28;20473;-51
2021/05/26 05:09:00;;;;;;;1.27;1.17;;;10.30;99.90;;;;;;5062663;28;20504;-52
2021/05/26 05:11:27;;;;;;;5.60;1.20;;;10.40;99.90;;;;;;5064586;28;20489;-50
2021/05/26 05:13:54;;;;;;;3.77;1.00;;;10.50;99.90;;;;;;5062384;28;20462;-49
2021/05/26 05:16:20;;;;;;;1.10;1.00;;;10.60;99.90;;;;;;5061767;28;20952;-50
2021/05/26 05:18:47;;;;;;;4.03;1.10;;;10.70;99.90;;;;;;5060857;28;20519;-49
2021/05/26 05:21:13;;;;;;;1.20;0.90;;;10.80;99.90;;;;;;5062404;28;20475;-50
2021/05/26 05:23:41;;;;;;;1.20;1.10;;;10.70;99.90;;;;;;5061870;28;20466;-50
2021/05/26 05:26:07;;;;;;;5.20;1.40;;;11.00;99.90;;;;;;5062594;28;20480;-50
2021/05/26 05:28:34;;;;;;;1.30;1.20;;;10.90;99.90;;;;;;5061970;28;20470;-51
2021/05/26 05:31:01;;;;;;;3.97;1.30;;;10.90;99.90;;;;;;5061189;28;20482;-49
2021/05/26 05:33:28;;;;;;;2.30;1.27;;;10.90;99.90;;;;;;5061531;28;20470;-50
2021/05/26 05:35:55;;;;;;;1.13;1.00;;;11.10;99.90;;;;;;5061104;28;20545;-49
2021/05/26 05:38:21;;;;;;;1.20;1.10;;;11.10;99.90;;;;;;5062896;28;20501;-50
2021/05/26 05:40:49;;;;;;;2.23;1.20;;;11.10;99.90;;;;;;5061978;28;20470;-50
2021/05/26 05:43:17;;;;;;;4.20;1.20;;;11.00;99.90;;;;;;5061698;28;20462;-50
2021/05/26 05:45:44;;;;;;;4.40;1.23;;;11.10;99.90;;;;;;5064527;28;20545;-50
2021/05/26 05:48:11;;;;;;;3.40;1.30;;;11.00;99.90;;;;;;5058868;28;20458;-50
2021/05/26 05:50:38;;;;;;;1.10;1.00;;;11.00;99.90;;;;;;5060897;28;20485;-50
2021/05/26 05:53:05;;;;;;;2.47;1.40;;;11.10;99.90;;;;;;5062490;28;20467;-49
2021/05/26 05:55:32;;;;;;;3.27;1.30;;;11.10;99.90;;;;;;5060044;28;20864;-50
2021/05/26 05:58:01;;;;;;;1.20;1.10;;;11.10;99.90;;;;;;5061770;28;20466;-50
2021/05/26 06:00:28;;;;;;;8.73;2.73;;;11.10;99.90;;;;;;5062344;28;20553;-52
2021/05/26 06:02:55;;;;;;;3.90;1.30;;;11.30;99.90;;;;;;5058775;28;20979;-50
2021/05/26 06:05:22;;;;;;;2.97;1.30;;;11.40;99.90;;;;;;5062466;28;20508;-49
2021/05/26 06:07:49;;;;;;;5.47;1.70;;;11.40;99.90;;;;;;5061897;28;20470;-51
2021/05/26 06:10:16;;;;;;;2.60;1.83;;;11.50;99.90;;;;;;5063186;28;20474;-49
2021/05/26 06:12:42;;;;;;;2.37;1.50;;;11.60;99.90;;;;;;5063564;28;20548;-50
2021/05/26 06:15:11;;;;;;;9.80;4.57;;;11.50;99.90;;;;;;5065380;28;20466;-51
2021/05/26 06:17:37;;;;;;;6.30;2.70;;;11.50;99.90;;;;;;5065167;28;21024;-50
2021/05/26 06:20:05;;;;;;;13.53;5.70;;;11.60;99.90;;;;;;5065018;28;20465;-50
2021/05/26 06:22:31;;;;;;;3.17;2.23;;;11.70;99.90;;;;;;5063892;28;20507;-49
2021/05/26 06:24:58;;;;;;;1.90;1.47;;;11.80;99.90;;;;;;5065114;28;20471;-51
2021/05/26 06:27:25;;;;;;;2.70;1.10;;;11.80;99.90;;;;;;5065141;28;20493;-50
2021/05/26 06:29:52;;;;;;;2.83;1.60;;;11.90;99.90;;;;;;5069007;28;20890;-49
2021/05/26 06:32:19;;;;;;;3.53;1.50;;;11.90;99.90;;;;;;5063475;28;20999;-50
2021/05/26 06:34:48;;;;;;;1.93;1.57;;;11.90;99.90;;;;;;5064836;28;20491;-50
2021/05/26 06:37:14;;;;;;;3.47;1.60;;;11.90;99.90;;;;;;5067118;28;20526;-50
2021/05/26 06:39:41;;;;;;;3.37;1.67;;;11.90;99.90;;;;;;5067235;28;20462;-50
2021/05/26 06:42:07;;;;;;;2.17;1.50;;;11.90;99.90;;;;;;5064644;28;20487;-50
2021/05/26 06:44:34;;;;;;;3.83;2.20;;;11.90;99.90;;;;;;5064437;28;20458;-50
2021/05/26 06:47:00;;;;;;;2.00;1.60;;;12.00;99.90;;;;;;5065020;28;20454;-50
2021/05/26 06:49:28;;;;;;;2.10;1.37;;;11.90;99.90;;;;;;5064388;28;20482;-50
2021/05/26 06:51:54;;;;;;;1.47;1.30;;;12.10;99.90;;;;;;5064201;28;20494;-50
2021/05/26 06:54:21;;;;;;;4.33;1.50;;;12.10;99.90;;;;;;5060840;28;20533;-51
2021/05/26 06:56:48;;;;;;;2.13;1.33;;;12.20;99.90;;;;;;5064513;28;20550;-50
2021/05/26 06:59:15;;;;;;;3.10;1.80;;;12.20;99.90;;;;;;5064986;28;20459;-50
2021/05/26 07:01:42;;;;;;;2.20;1.40;;;12.10;99.90;;;;;;5065681;28;20490;-50
2021/05/26 07:04:11;;;;;;;2.83;1.60;;;12.20;99.90;;;;;;5064135;28;20455;-50
2021/05/26 07:06:39;;;;;;;3.80;2.07;;;12.30;99.90;;;;;;5065098;28;20459;-50
2021/05/26 07:09:06;;;;;;;2.73;1.67;;;12.40;99.90;;;;;;5064068;28;20459;-49
2021/05/26 07:11:33;;;;;;;4.53;2.07;;;12.50;99.90;;;;;;5063788;28;20494;-50
2021/05/26 07:13:59;;;;;;;3.50;1.57;;;12.60;99.90;;;;;;5062918;28;20990;-50
2021/05/26 07:16:26;;;;;;;2.60;1.50;;;12.70;99.90;;;;;;5060369;28;20458;-50
2021/05/26 07:18:52;;;;;;;1.70;1.30;;;12.80;99.90;;;;;;5062093;28;20464;-50
2021/05/26 07:21:19;;;;;;;1.63;1.40;;;13.00;99.90;;;;;;5058561;28;20485;-50
2021/05/26 07:23:46;;;;;;;3.70;1.30;;;13.30;99.90;;;;;;5068315;28;20541;-50
2021/05/26 07:26:12;;;;;;;5.90;3.10;;;13.50;99.90;;;;;;5071122;28;20905;-49
2021/05/26 07:28:41;;;;;;;2.30;1.40;;;13.70;99.90;;;;;;5064961;28;20447;-49
2021/05/26 07:31:07;;;;;;;2.27;1.20;;;13.90;99.90;;;;;;5068555;28;20564;-50
2021/05/26 07:33:34;;;;;;;2.47;1.33;;;13.90;99.90;;;;;;5069441;28;20459;-50
2021/05/26 07:36:00;;;;;;;3.70;1.47;;;13.90;99.90;;;;;;5065462;28;20463;-50
2021/05/26 07:38:27;;;;;;;5.00;1.60;;;14.00;99.90;;;;;;5066302;28;20957;-50
2021/05/26 07:40:54;;;;;;;2.37;1.70;;;14.20;99.90;;;;;;5061829;28;20851;-49
2021/05/26 07:43:21;;;;;;;2.17;1.80;;;14.70;99.90;;;;;;5064658;28;20471;-50
2021/05/26 07:45:49;;;;;;;2.00;1.30;;;15.20;99.90;;;;;;5062408;28;20489;-50
2021/05/26 07:48:16;;;;;;;2.53;0.93;;;15.40;99.90;;;;;;5062759;28;20465;-50
2021/05/26 07:50:43;;;;;;;3.07;1.37;;;15.30;99.90;;;;;;5062590;28;20486;-50
2021/05/26 07:53:09;;;;;;;1.87;1.20;;;15.50;99.90;;;;;;5062397;28;20451;-50
2021/05/26 07:55:36;;;;;;;3.50;1.00;;;15.20;99.90;;;;;;5057548;28;20443;-49
2021/05/26 07:58:03;;;;;;;3.53;1.50;;;15.00;99.90;;;;;;5069434;28;20458;-50
2021/05/26 08:00:30;;;;;;;1.77;0.90;;;14.80;99.90;;;;;;5072188;28;20442;-50
2021/05/26 08:02:56;;;;;;;4.60;0.97;;;14.80;99.90;;;;;;5063216;28;20447;-49
2021/05/26 08:05:24;;;;;;;1.83;0.80;;;14.50;99.90;;;;;;5071829;28;20504;-50
2021/05/26 08:07:51;;;;;;;3.43;1.00;;;14.50;99.90;;;;;;5072258;28;20545;-49
2021/05/26 08:10:18;;;;;;;1.40;0.90;;;14.60;99.90;;;;;;5071968;28;20478;-49
2021/05/26 08:12:45;;;;;;;3.03;1.17;;;14.50;99.90;;;;;;5071722;28;20958;-49
2021/05/26 08:15:13;;;;;;;3.27;0.97;;;14.20;99.90;;;;;;5070137;28;20447;-50
2021/05/26 08:17:41;;;;;;;1.70;1.20;;;14.10;99.90;;;;;;5071689;28;20507;-50
2021/05/26 08:20:08;;;;;;;1.50;1.40;;;14.30;99.90;;;;;;5072064;28;20550;-50
2021/05/26 08:22:35;;;;;;;1.43;1.10;;;14.30;99.90;;;;;;5070728;28;21088;-50
2021/05/26 08:25:03;;;;;;;2.47;1.10;;;14.40;99.90;;;;;;5069899;28;20451;-50
2021/05/26 08:27:29;;;;;;;3.13;1.10;;;14.60;99.90;;;;;;5069171;28;20442;-50
2021/05/26 08:29:59;;;;;;;1.30;1.00;;;14.60;99.90;;;;;;5071462;28;20539;-50
2021/05/26 08:32:26;;;;;;;2.30;1.10;;;14.70;99.90;;;;;;5071159;28;20497;-50
2021/05/26 08:34:55;;;;;;;0.90;0.80;;;15.40;99.90;;;;;;5071089;28;21030;-50
2021/05/26 08:37:21;;;;;;;3.90;1.30;;;16.70;99.90;;;;;;5071290;28;20584;-50
2021/05/26 08:39:48;;;;;;;3.70;1.30;;;17.80;99.90;;;;;;5071113;28;20451;-51
2021/05/26 08:42:16;;;;;;;1.93;1.20;;;19.00;99.90;;;;;;5066256;28;20471;-50
2021/05/26 08:44:43;;;;;;;1.63;1.30;;;20.10;98.00;;;;;;5066137;28;20529;-51
2021/05/26 08:47:16;;;;;;;5.10;1.30;;;20.70;94.60;;;;;;5068704;28;20443;-51
2021/05/26 08:49:46;;;;;;;3.90;1.70;;;20.60;95.00;;;;;;5071519;28;20478;-51
2021/05/26 08:52:15;;;;;;;2.53;1.07;;;20.60;95.20;;;;;;5070977;28;20477;-51
2021/05/26 08:54:44;;;;;;;1.90;1.30;;;20.20;94.00;;;;;;5059890;28;20529;-50
2021/05/26 08:57:11;;;;;;;1.57;1.30;;;19.80;93.80;;;;;;5071018;28;20535;-50
2021/05/26 08:59:38;;;;;;;4.20;1.40;;;19.40;94.20;;;;;;5071648;28;20465;-50
2021/05/26 09:02:05;;;;;;;1.40;1.30;;;18.80;95.20;;;;;;5098879;22;20490;-54
2021/05/26 09:04:33;;;;;;;1.90;1.10;;;18.50;95.20;;;;;;5070451;28;20443;-54
2021/05/26 09:07:09;;;;;;;5.30;1.70;;;18.20;95.60;;;;;;5070959;28;20446;-54
2021/05/26 09:09:47;;;;;;;2.07;1.10;;;18.10;95.20;;;;;;5071189;28;20446;-54
2021/05/26 09:12:14;;;;;;;3.23;1.10;;;17.60;96.40;;;;;;5088057;28;20466;-54
2021/05/26 09:14:41;;;;;;;1.40;1.30;;;17.50;96.20;;;;;;5090954;28;20442;-53
2021/05/26 09:17:11;;;;;;;1.20;1.10;;;17.30;95.20;;;;;;5090816;28;20446;-54
2021/05/26 09:19:38;;;;;;;1.27;1.00;;;17.20;96.20;;;;;;5091274;28;20478;-54
2021/05/26 09:22:13;;;;;;;3.23;0.97;;;17.50;96.70;;;;;;5090820;28;20462;-54
2021/05/26 09:24:40;;;;;;;4.73;1.37;;;17.60;95.30;;;;;;5090686;28;20938;-54
2021/05/26 09:27:08;;;;;;;1.90;1.50;;;17.50;97.00;;;;;;5090993;28;20438;-54
2021/05/26 09:29:37;;;;;;;4.00;1.37;;;17.70;96.90;;;;;;5090756;28;20955;-53
2021/05/26 09:32:22;;;;;;;3.53;1.40;;;17.90;97.00;;;;;;5090632;28;20511;-54
2021/05/26 09:34:49;;;;;;;2.70;1.30;;;18.30;98.50;;;;;;5090812;28;20448;-53
2021/05/26 09:37:19;;;;;;;3.40;1.03;;;18.50;95.90;;;;;;5090955;28;20507;-53
2021/05/26 09:39:57;;;;;;;2.20;1.10;;;18.70;95.50;;;;;;5090676;28;20569;-54
2021/05/26 09:42:35;;;;;;;2.47;1.20;;;18.90;95.40;;;;;;5090494;28;20462;-54
2021/05/26 09:45:08;;;;;;;1.33;1.10;;;19.30;95.40;;;;;;5091607;28;20518;-53
2021/05/26 09:47:36;;;;;;;2.30;1.10;;;19.00;93.80;;;;;;5094682;28;20453;-54
2021/05/26 09:50:20;;;;;;;2.20;1.00;;;18.70;93.20;;;;;;5094639;28;20473;-54
2021/05/26 09:53:06;;;;;;;1.20;1.10;;;18.80;93.30;;;;;;5094477;28;20456;-53
2021/05/26 09:55:35;;;;;;;1.70;1.10;;;18.80;93.70;;;;;;5094001;28;20457;-54
2021/05/26 09:58:03;;;;;;;1.20;1.00;;;18.80;93.70;;;;;;5094387;28;20446;-54
2021/05/26 10:00:31;;;;;;;2.23;1.10;;;18.90;93.70;;;;;;5094267;28;20469;-54
2021/05/26 10:02:57;;;;;;;0.90;0.90;;;18.70;93.70;;;;;;5093836;28;20453;-54
2021/05/26 10:05:25;;;;;;;0.90;0.90;;;18.40;93.70;;;;;;5094130;28;20457;-54
2021/05/26 10:07:53;;;;;;;4.73;1.27;;;18.10;93.80;;;;;;5086087;28;20451;-54
2021/05/26 10:10:22;;;;;;;3.30;1.33;;;17.80;93.80;;;;;;5086282;28;20484;-54
2021/05/26 10:12:54;;;;;;;0.93;0.90;;;17.60;94.00;;;;;;5093909;28;20519;-54
2021/05/26 10:15:23;;;;;;;2.50;1.43;;;17.50;94.10;;;;;;5093722;28;20457;-54
2021/05/26 10:17:51;;;;;;;1.03;0.90;;;17.40;94.60;;;;;;5094045;28;20441;-54
2021/05/26 10:20:22;;;;;;;3.60;1.10;;;17.40;94.80;;;;;;5093983;28;20441;-54
2021/05/26 10:22:53;;;;;;;1.57;1.27;;;17.40;94.70;;;;;;5093974;28;20862;-55
2021/05/26 10:25:22;;;;;;;2.90;1.00;;;17.30;94.70;;;;;;5093930;28;20519;-54
2021/05/26 10:27:50;;;;;;;1.23;0.97;;;17.20;95.50;;;;;;5093749;28;20915;-54
2021/05/26 10:30:17;;;;;;;1.20;1.07;;;17.20;96.30;;;;;;5093861;28;20486;-54
2021/05/26 10:32:55;;;;;;;2.20;1.17;;;17.30;95.70;;;;;;5093454;28;20446;-54
2021/05/26 10:35:23;;;;;;;1.80;1.20;;;17.20;95.50;;;;;;5093335;28;20938;-54
2021/05/26 10:37:58;;;;;;;1.10;1.00;;;17.20;95.40;;;;;;5093801;28;20450;-54
2021/05/26 10:40:37;;;;;;;1.10;1.00;;;17.10;95.80;;;;;;5093622;28;20449;-54
2021/05/26 10:43:40;;;;;;;3.00;1.00;;;17.00;95.60;;;;;;5093757;28;20538;-54
2021/05/26 10:46:07;;;;;;;2.27;1.00;;;16.70;96.30;;;;;;5093374;28;21008;-54
2021/05/26 10:49:01;;;;;;;2.47;1.10;;;16.40;95.90;;;;;;5093539;28;20442;-54
2021/05/26 10:52:09;;;;;;;2.23;1.33;;;16.30;96.00;;;;;;5093505;28;20511;-54
2021/05/26 10:55:06;;;;;;;2.27;1.10;;;16.20;96.80;;;;;;5077935;28;20450;-54
2021/05/26 10:58:11;;;;;;;1.60;1.00;;;16.30;96.00;;;;;;5093055;28;20957;-54
2021/05/26 11:00:39;;;;;;;2.10;0.90;;;16.40;96.60;;;;;;5081798;28;20989;-54
2021/05/26 11:03:34;;;;;;;1.10;1.00;;;16.40;96.40;;;;;;5083716;28;20468;-55
2021/05/26 11:06:03;;;;;;;1.37;1.07;;;16.40;96.10;;;;;;5093097;28;20541;-54
2021/05/26 11:08:42;;;;;;;1.37;1.00;;;16.50;96.60;;;;;;5092802;28;21012;-54
2021/05/26 11:11:44;;;;;;;1.13;1.00;;;16.50;97.70;;;;;;5092851;28;20543;-54
2021/05/26 11:14:32;;;;;;;3.50;0.97;;;16.40;98.30;;;;;;5092386;28;20450;-54
2021/05/26 11:17:32;;;;;;;3.00;1.10;;;16.50;96.40;;;;;;5093136;28;20442;-54
2021/05/26 11:20:11;;;;;;;1.43;1.03;;;16.50;96.50;;;;;;5092769;28;20472;-54
2021/05/26 11:22:38;;;;;;;2.23;1.00;;;16.40;96.90;;;;;;5092623;28;20540;-53
2021/05/26 11:25:08;;;;;;;8.63;1.07;;;16.30;98.40;;;;;;5092694;28;20449;-54
2021/05/26 11:27:35;;;;;;;1.70;1.30;;;16.30;98.10;;;;;;5093221;28;20474;-54
2021/05/26 11:30:04;;;;;;;1.40;1.30;;;16.50;98.20;;;;;;5092477;28;20803;-54
2021/05/26 11:32:31;;;;;;;1.53;1.33;;;16.50;97.70;;;;;;5092110;28;20489;-54
2021/05/26 11:35:03;;;;;;;3.30;1.20;;;16.50;98.00;;;;;;5092570;28;20446;-54
2021/05/26 11:37:30;;;;;;;3.73;1.20;;;16.50;97.90;;;;;;5092713;28;20465;-54
2021/05/26 11:39:58;;;;;;;2.27;1.40;;;16.60;99.90;;;;;;5092610;28;20800;-55
2021/05/26 11:42:26;;;;;;;3.50;1.30;;;16.60;98.60;;;;;;5092172;28;20513;-54
2021/05/26 11:44:58;;;;;;;1.30;1.13;;;16.60;97.60;;;;;;5092543;28;20449;-54
2021/05/26 11:47:36;;;;;;;1.80;1.00;;;16.50;97.30;;;;;;5092326;28;20446;-54
2021/05/26 11:50:19;;;;;;;2.53;1.20;;;16.60;97.00;;;;;;5092145;28;20457;-53
2021/05/26 11:52:47;;;;;;;1.87;0.90;;;16.50;99.20;;;;;;5083007;28;20450;-54
2021/05/26 11:55:14;;;;;;;1.00;0.90;;;16.50;97.30;;;;;;5091238;28;20475;-54
2021/05/26 11:57:42;;;;;;;1.13;0.93;;;16.50;97.70;;;;;;5091958;28;20510;-54
2021/05/26 12:00:11;;;;;;;2.13;0.97;;;16.60;98.70;;;;;;5092233;28;20461;-54
2021/05/26 12:02:52;;;;;;;2.40;0.90;;;16.80;99.90;;;;;;5090300;28;20453;-54
2021/05/26 12:05:41;;;;;;;4.30;1.17;;;16.90;99.90;;;;;;5071554;28;20501;-54
2021/05/26 12:08:19;;;;;;;1.80;1.13;;;16.90;99.90;;;;;;5071418;28;20450;-53
2021/05/26 12:10:47;;;;;;;1.60;1.00;;;16.60;99.90;;;;;;5071498;28;20547;-53
2021/05/26 12:13:17;;;;;;;2.40;1.27;;;16.50;99.90;;;;;;5081584;28;20976;-53
2021/05/26 12:15:44;;;;;;;4.47;1.30;;;16.60;99.90;;;;;;5091620;28;20445;-54
2021/05/26 12:18:12;;;;;;;2.73;1.40;;;16.90;99.10;;;;;;5091670;28;20859;-54
2021/05/26 12:20:44;;;;;;;1.30;1.10;;;16.90;99.50;;;;;;5091685;28;20511;-54
2021/05/26 12:23:11;;;;;;;1.83;1.00;;;16.90;98.40;;;;;;5089348;28;20879;-54
2021/05/26 12:25:40;;;;;;;3.73;1.40;;;17.10;98.00;;;;;;5086201;28;20454;-54
2021/05/26 12:28:15;;;;;;;3.23;1.17;;;17.00;99.90;;;;;;5091269;28;20959;-54
2021/05/26 12:30:42;;;;;;;1.90;1.00;;;17.10;98.50;;;;;;5091377;28;20560;-54
2021/05/26 12:33:17;;;;;;;2.63;0.80;;;17.20;98.00;;;;;;5091521;28;20465;-54
2021/05/26 12:35:44;;;;;;;4.33;1.23;;;17.10;98.20;;;;;;5090693;28;20830;-55
2021/05/26 12:38:24;;;;;;;1.90;1.03;;;17.30;97.90;;;;;;5091419;28;20450;-54
2021/05/26 12:40:50;;;;;;;1.53;1.10;;;17.50;97.40;;;;;;5091332;28;20458;-54
2021/05/26 12:43:26;;;;;;;3.10;1.10;;;17.40;97.60;;;;;;5090746;28;20826;-55
2021/05/26 12:45:53;;;;;;;5.97;1.07;;;17.30;97.70;;;;;;5091298;28;20464;-53
2021/05/26 12:48:22;;;;;;;2.47;1.10;;;17.20;99.70;;;;;;5091379;28;20868;-53
2021/05/26 12:50:52;;;;;;;1.10;1.00;;;17.30;98.00;;;;;;5091333;28;20485;-54
2021/05/26 12:53:18;;;;;;;1.93;0.90;;;17.50;97.90;;;;;;5091173;28;20512;-56
2021/05/26 12:55:45;;;;;;;3.67;1.40;;;17.30;99.90;;;;;;5090443;28;20453;-54
2021/05/26 12:58:15;;;;;;;2.07;1.20;;;17.20;99.90;;;;;;5090570;28;20951;-53